Terminal Aerodrome Forecast
Issued by NWS

Home | Current Version | Previous Version | Text Only | Print | Product List | Glossary On
Versions: 1 2 3 4 5 6 7 8 9 10 11 12 13 14 15 16 17 18 19 20 21 22 23
000
FTUS44 KMAF 302028 CCA
TAFCNM
TAF COR
KCNM 302028Z 3020/3118 06008KT P6SM SCT015 BKN100
      TEMPO 3020/3024 VRB15G25KT 2SM +TSRA BR BKN015 BKN040CB
     FM310000 36008KT P6SM -SHRA BKN050
      TEMPO 3100/3104 3SM TSRA BR BKN015 OVC035CB
     FM310400 04006KT P6SM -SHRA BKN035
      TEMPO 3104/3108 3SM TSRA BR BKN010 OVC035CB=

USA.gov is the U.S. government's official web portal to all federal, state and local government web resources and services.